sensor_id;sensor_type;location;lat;lon;timestamp;pressure;altitude;pressure_sealevel;temperature;humidity
50250;BME280;36133;42.522;27.456;2023-04-15T00:01:24;100341.56;;;17.43;47.11
50250;BME280;36133;42.522;27.456;2023-04-15T00:03:52;100733.41;;;18.86;49.80
50250;BME280;36133;42.522;27.456;2023-04-15T00:06:22;100725.34;;;18.80;50.44
50250;BME280;36133;42.522;27.456;2023-04-15T00:08:48;100562.72;;;18.70;48.51
50250;BME280;36133;42.522;27.456;2023-04-15T00:11:16;100238.88;;;16.97;47.05
50250;BME280;36133;42.522;27.456;2023-04-15T00:13:41;100563.72;;;19.26;46.84
50250;BME280;36133;42.522;27.456;2023-04-15T00:16:09;100390.38;;;18.20;46.73
50250;BME280;36133;42.522;27.456;2023-04-15T00:18:35;100525.28;;;18.59;47.76
50250;BME280;36133;42.522;27.456;2023-04-15T00:21:04;100188.22;;;16.26;47.91
50250;BME280;36133;42.522;27.456;2023-04-15T00:23:31;100751.75;;;20.00;47.32
50250;BME280;36133;42.522;27.456;2023-04-15T00:25:56;100734.88;;;20.25;46.31
50250;BME280;36133;42.522;27.456;2023-04-15T00:28:22;100358.75;;;16.27;50.52
50250;BME280;36133;42.522;27.456;2023-04-15T00:30:48;100554.16;;;18.95;47.02
50250;BME280;36133;42.522;27.456;2023-04-15T00:33:13;100523.00;;;17.64;49.99
50250;BME280;36133;42.522;27.456;2023-04-15T00:35:41;100732.09;;;19.74;47.74
50250;BME280;36133;42.522;27.456;2023-04-15T00:38:06;100747.25;;;18.21;50.95
50250;BME280;36133;42.522;27.456;2023-04-15T00:40:32;100652.25;;;19.03;48.17
50250;BME280;36133;42.522;27.456;2023-04-15T00:42:58;100197.47;;;16.13;48.34
50250;BME280;36133;42.522;27.456;2023-04-15T00:45:24;100182.84;;;15.12;50.16
50250;BME280;36133;42.522;27.456;2023-04-15T00:47:50;100276.19;;;17.48;46.46
50250;BME280;36133;42.522;27.456;2023-04-15T00:50:16;100241.88;;;16.37;48.01
50250;BME280;36133;42.522;27.456;2023-04-15T00:52:41;100205.06;;;17.10;46.02
50250;BME280;36133;42.522;27.456;2023-04-15T00:55:08;100754.31;;;20.06;47.03
50250;BME280;36133;42.522;27.456;2023-04-15T00:57:34;100188.47;;;16.36;47.46
50250;BME280;36133;42.522;27.456;2023-04-15T01:00:00;100546.53;;;18.29;48.33
50250;BME280;36133;42.522;27.456;2023-04-15T01:02:26;100417.66;;;17.92;47.10
50250;BME280;36133;42.522;27.456;2023-04-15T01:04:55;100155.00;;;15.17;50.83
50250;BME280;36133;42.522;27.456;2023-04-15T01:07:21;100721.44;;;19.89;47.99
50250;BME280;36133;42.522;27.456;2023-04-15T01:09:46;100250.59;;;17.95;45.54
50250;BME280;36133;42.522;27.456;2023-04-15T01:12:13;100489.38;;;18.67;46.50
50250;BME280;36133;42.522;27.456;2023-04-15T01:14:41;100580.19;;;18.69;48.11
50250;BME280;36133;42.522;27.456;2023-04-15T01:17:07;100236.69;;;16.35;48.68
50250;BME280;36133;42.522;27.456;2023-04-15T01:19:33;100201.72;;;16.44;47.91
50250;BME280;36133;42.522;27.456;2023-04-15T01:22:02;100423.22;;;18.54;45.80
50250;BME280;36133;42.522;27.456;2023-04-15T01:24:29;100652.53;;;19.36;47.68
50250;BME280;36133;42.522;27.456;2023-04-15T01:26:56;100408.69;;;17.79;47.81
50250;BME280;36133;42.522;27.456;2023-04-15T01:29:21;100200.84;;;17.76;45.70
50250;BME280;36133;42.522;27.456;2023-04-15T01:31:52;100208.59;;;17.39;46.26
50250;BME280;36133;42.522;27.456;2023-04-15T01:34:22;100246.63;;;17.57;46.06
50250;BME280;36133;42.522;27.456;2023-04-15T01:36:47;100402.22;;;17.57;47.90
50250;BME280;36133;42.522;27.456;2023-04-15T01:39:13;100535.00;;;19.12;46.60
50250;BME280;36133;42.522;27.456;2023-04-15T01:41:39;100575.78;;;19.14;47.11
50250;BME280;36133;42.522;27.456;2023-04-15T01:44:07;100359.44;;;18.65;45.20
50250;BME280;36133;42.522;27.456;2023-04-15T01:46:33;100543.22;;;19.79;45.22
50250;BME280;36133;42.522;27.456;2023-04-15T01:48:59;100447.66;;;19.44;45.04
50250;BME280;36133;42.522;27.456;2023-04-15T01:51:25;100469.81;;;20.03;43.72
50250;BME280;36133;42.522;27.456;2023-04-15T01:53:51;100379.53;;;19.48;43.39
50250;BME280;36133;42.522;27.456;2023-04-15T01:56:17;100487.44;;;20.56;42.56
50250;BME280;36133;42.522;27.456;2023-04-15T01:58:43;100437.56;;;20.10;42.64
50250;BME280;36133;42.522;27.456;2023-04-15T02:01:08;100349.94;;;19.45;42.72
50250;BME280;36133;42.522;27.456;2023-04-15T02:03:38;100695.66;;;21.06;43.97
50250;BME280;36133;42.522;27.456;2023-04-15T02:06:03;100542.66;;;20.21;44.30
50250;BME280;36133;42.522;27.456;2023-04-15T02:08:30;100550.50;;;20.12;44.51
50250;BME280;36133;42.522;27.456;2023-04-15T02:10:56;100567.03;;;19.79;44.88
50250;BME280;36133;42.522;27.456;2023-04-15T02:13:24;100371.34;;;18.59;45.20
50250;BME280;36133;42.522;27.456;2023-04-15T02:15:50;100310.88;;;18.55;44.34
50250;BME280;36133;42.522;27.456;2023-04-15T02:18:16;100402.34;;;19.15;44.29
50250;BME280;36133;42.522;27.456;2023-04-15T02:20:42;100546.38;;;19.71;45.23
50250;BME280;36133;42.522;27.456;2023-04-15T02:23:11;100634.97;;;20.15;46.25
50250;BME280;36133;42.522;27.456;2023-04-15T02:25:37;100233.72;;;17.98;45.20
50250;BME280;36133;42.522;27.456;2023-04-15T02:28:05;100411.50;;;19.03;45.36
50250;BME280;36133;42.522;27.456;2023-04-15T02:30:32;100573.09;;;18.85;48.20
50250;BME280;36133;42.522;27.456;2023-04-15T02:32:58;100525.97;;;19.62;46.34
50250;BME280;36133;42.522;27.456;2023-04-15T02:35:24;100381.09;;;18.66;45.94
50250;BME280;36133;42.522;27.456;2023-04-15T02:37:50;100410.22;;;19.50;44.49
50250;BME280;36133;42.522;27.456;2023-04-15T02:40:16;100553.34;;;20.23;45.13
50250;BME280;36133;42.522;27.456;2023-04-15T02:42:42;100549.19;;;19.76;45.79
50250;BME280;36133;42.522;27.456;2023-04-15T02:45:08;100393.50;;;18.74;46.43
50250;BME280;36133;42.522;27.456;2023-04-15T02:47:37;100565.78;;;20.08;45.63
50250;BME280;36133;42.522;27.456;2023-04-15T02:50:11;100215.94;;;17.95;45.21
50250;BME280;36133;42.522;27.456;2023-04-15T02:52:41;100712.78;;;20.48;46.35
50250;BME280;36133;42.522;27.456;2023-04-15T02:55:07;100721.25;;;20.30;46.81
50250;BME280;36133;42.522;27.456;2023-04-15T02:57:34;100630.94;;;19.68;47.46
50250;BME280;36133;42.522;27.456;2023-04-15T03:00:05;100197.16;;;16.96;47.25
50250;BME280;36133;42.522;27.456;2023-04-15T03:02:36;100515.03;;;18.95;47.36
50250;BME280;36133;42.522;27.456;2023-04-15T03:05:03;100739.06;;;19.37;49.66
50250;BME280;36133;42.522;27.456;2023-04-15T03:07:30;100402.13;;;18.37;47.27
50250;BME280;36133;42.522;27.456;2023-04-15T03:09:56;100715.56;;;20.53;46.84
50250;BME280;36133;42.522;27.456;2023-04-15T03:12:22;100232.19;;;17.45;46.86
50250;BME280;36133;42.522;27.456;2023-04-15T03:14:47;100165.41;;;16.67;48.12
50250;BME280;36133;42.522;27.456;2023-04-15T03:17:13;100306.19;;;17.89;47.11
50250;BME280;36133;42.522;27.456;2023-04-15T03:19:38;100403.16;;;17.51;49.33
50250;BME280;36133;42.522;27.456;2023-04-15T03:22:04;100647.94;;;18.79;49.81
50250;BME280;36133;42.522;27.456;2023-04-15T03:24:30;100429.13;;;17.77;48.76
50250;BME280;36133;42.522;27.456;2023-04-15T03:26:56;100562.75;;;18.87;48.58
50250;BME280;36133;42.522;27.456;2023-04-15T03:29:22;100525.72;;;19.47;46.60
50250;BME280;36133;42.522;27.456;2023-04-15T03:31:48;100471.72;;;19.25;46.30
50250;BME280;36133;42.522;27.456;2023-04-15T03:34:13;100551.38;;;19.96;45.84
50250;BME280;36133;42.522;27.456;2023-04-15T03:36:39;100564.75;;;19.93;45.56
50250;BME280;36133;42.522;27.456;2023-04-15T03:39:05;100492.94;;;19.69;45.53
50250;BME280;36133;42.522;27.456;2023-04-15T03:41:30;100257.06;;;18.05;45.60
50250;BME280;36133;42.522;27.456;2023-04-15T03:43:57;100469.22;;;19.57;45.28
50250;BME280;36133;42.522;27.456;2023-04-15T03:46:22;100415.13;;;19.09;45.49
50250;BME280;36133;42.522;27.456;2023-04-15T03:48:48;100675.91;;;20.61;45.45
50250;BME280;36133;42.522;27.456;2023-04-15T03:51:14;100569.63;;;20.07;45.33
50250;BME280;36133;42.522;27.456;2023-04-15T03:53:39;100742.19;;;21.18;45.16
50250;BME280;36133;42.522;27.456;2023-04-15T03:56:08;100679.59;;;20.71;45.19
50250;BME280;36133;42.522;27.456;2023-04-15T03:58:33;100712.41;;;20.83;45.73
50250;BME280;36133;42.522;27.456;2023-04-15T04:00:59;100244.31;;;17.94;45.73
50250;BME280;36133;42.522;27.456;2023-04-15T04:03:24;100590.22;;;20.32;45.23
50250;BME280;36133;42.522;27.456;2023-04-15T04:05:50;100418.44;;;19.11;45.28
50250;BME280;36133;42.522;27.456;2023-04-15T04:08:16;100758.81;;;21.28;45.60
50250;BME280;36133;42.522;27.456;2023-04-15T04:10:43;100734.59;;;20.82;45.49
50250;BME280;36133;42.522;27.456;2023-04-15T04:13:09;100326.81;;;18.41;45.81
50250;BME280;36133;42.522;27.456;2023-04-15T04:15:34;100402.00;;;18.61;46.53
50250;BME280;36133;42.522;27.456;2023-04-15T04:18:00;100747.41;;;20.54;46.87
50250;BME280;36133;42.522;27.456;2023-04-15T04:20:26;100412.13;;;18.60;46.76
50250;BME280;36133;42.522;27.456;2023-04-15T04:22:51;100488.38;;;19.57;45.72
50250;BME280;36133;42.522;27.456;2023-04-15T04:25:17;100266.63;;;18.58;45.05
50250;BME280;36133;42.522;27.456;2023-04-15T04:27:43;100422.94;;;19.56;44.49
50250;BME280;36133;42.522;27.456;2023-04-15T04:30:12;100520.41;;;20.17;44.52
50250;BME280;36133;42.522;27.456;2023-04-15T04:32:38;100446.88;;;20.09;44.14
50250;BME280;36133;42.522;27.456;2023-04-15T04:35:04;100590.88;;;21.10;43.76
50250;BME280;36133;42.522;27.456;2023-04-15T04:37:29;100553.88;;;20.41;44.82
50250;BME280;36133;42.522;27.456;2023-04-15T04:39:55;100563.91;;;21.06;43.79
50250;BME280;36133;42.522;27.456;2023-04-15T04:42:21;100486.28;;;20.79;43.59
50250;BME280;36133;42.522;27.456;2023-04-15T04:44:46;100482.84;;;20.94;42.85
50250;BME280;36133;42.522;27.456;2023-04-15T04:47:12;100579.06;;;21.78;42.47
50250;BME280;36133;42.522;27.456;2023-04-15T04:49:38;100253.94;;;16.99;47.68
50250;BME280;36133;42.522;27.456;2023-04-15T04:52:04;100769.81;;;20.34;47.27
50250;BME280;36133;42.522;27.456;2023-04-15T04:54:29;100399.84;;;18.63;46.01
50250;BME280;36133;42.522;27.456;2023-04-15T04:56:55;100508.47;;;19.29;46.15
50250;BME280;36133;42.522;27.456;2023-04-15T04:59:22;100382.09;;;18.32;46.40
50250;BME280;36133;42.522;27.456;2023-04-15T05:01:51;100779.00;;;20.78;46.47
50250;BME280;36133;42.522;27.456;2023-04-15T05:04:17;100252.88;;;16.54;48.60
50250;BME280;36133;42.522;27.456;2023-04-15T05:06:43;100439.94;;;17.60;48.72
50250;BME280;36133;42.522;27.456;2023-04-15T05:09:09;100571.09;;;18.40;49.00
50250;BME280;36133;42.522;27.456;2023-04-15T05:11:34;100449.34;;;18.33;47.70
50250;BME280;36133;42.522;27.456;2023-04-15T05:14:00;100453.56;;;17.83;48.74
50250;BME280;36133;42.522;27.456;2023-04-15T05:16:26;100646.91;;;18.57;50.04
50250;BME280;36133;42.522;27.456;2023-04-15T05:18:52;100623.97;;;18.58;49.48
50250;BME280;36133;42.522;27.456;2023-04-15T05:21:18;100398.94;;;17.08;49.67
50250;BME280;36133;42.522;27.456;2023-04-15T05:23:45;100644.94;;;18.17;50.70
50250;BME280;36133;42.522;27.456;2023-04-15T05:26:10;100673.09;;;18.29;51.06
50250;BME280;36133;42.522;27.456;2023-04-15T05:28:36;100516.78;;;18.04;49.40
50250;BME280;36133;42.522;27.456;2023-04-15T05:31:02;100444.38;;;16.61;52.48
50250;BME280;36133;42.522;27.456;2023-04-15T05:33:28;100453.94;;;16.52;53.29
50250;BME280;36133;42.522;27.456;2023-04-15T05:35:53;100401.53;;;15.23;57.28
50250;BME280;36133;42.522;27.456;2023-04-15T05:38:19;100362.63;;;15.22;57.04
50250;BME280;36133;42.522;27.456;2023-04-15T05:40:45;100493.41;;;16.49;55.86
50250;BME280;36133;42.522;27.456;2023-04-15T05:43:11;100696.19;;;17.26;57.67
50250;BME280;36133;42.522;27.456;2023-04-15T05:45:37;100659.53;;;17.22;56.29
50250;BME280;36133;42.522;27.456;2023-04-15T05:48:02;100525.63;;;16.04;57.32
50250;BME280;36133;42.522;27.456;2023-04-15T05:50:28;100659.16;;;16.16;59.05
50250;BME280;36133;42.522;27.456;2023-04-15T05:52:54;100904.34;;;18.30;57.06
50250;BME280;36133;42.522;27.456;2023-04-15T05:55:20;100733.41;;;17.51;55.74
50250;BME280;36133;42.522;27.456;2023-04-15T05:57:46;100581.19;;;16.69;55.74
50250;BME280;36133;42.522;27.456;2023-04-15T06:00:12;100539.44;;;16.21;56.72
50250;BME280;36133;42.522;27.456;2023-04-15T06:02:38;100460.50;;;16.02;56.05
50250;BME280;36133;42.522;27.456;2023-04-15T06:05:04;100589.25;;;16.28;57.18
50250;BME280;36133;42.522;27.456;2023-04-15T06:07:34;100589.91;;;16.41;57.73
50250;BME280;36133;42.522;27.456;2023-04-15T06:10:02;100688.66;;;17.10;57.89
50250;BME280;36133;42.522;27.456;2023-04-15T06:12:27;100596.50;;;16.34;58.35
50250;BME280;36133;42.522;27.456;2023-04-15T06:14:53;100383.00;;;13.75;60.84
50250;BME280;36133;42.522;27.456;2023-04-15T06:17:25;100758.53;;;15.81;62.23
50250;BME280;36133;42.522;27.456;2023-04-15T06:19:50;100654.22;;;15.56;60.85
50250;BME280;36133;42.522;27.456;2023-04-15T06:22:23;100459.50;;;15.42;58.00
50250;BME280;36133;42.522;27.456;2023-04-15T06:24:51;100703.22;;;16.49;58.08
50250;BME280;36133;42.522;27.456;2023-04-15T06:27:17;100624.13;;;16.19;58.14
50250;BME280;36133;42.522;27.456;2023-04-15T06:29:45;100833.94;;;17.72;57.98
50250;BME280;36133;42.522;27.456;2023-04-15T06:32:11;100946.34;;;18.59;56.46
50250;BME280;36133;42.522;27.456;2023-04-15T06:34:37;100958.53;;;19.45;55.24
50250;BME280;36133;42.522;27.456;2023-04-15T06:37:09;100822.00;;;18.85;54.18
50250;BME280;36133;42.522;27.456;2023-04-15T06:39:40;100524.06;;;17.28;53.37
50250;BME280;36133;42.522;27.456;2023-04-15T06:42:05;100948.28;;;17.62;57.47
50250;BME280;36133;42.522;27.456;2023-04-15T06:44:31;100773.44;;;16.47;58.38
50250;BME280;36133;42.522;27.456;2023-04-15T06:46:56;100594.91;;;15.90;57.07
50250;BME280;36133;42.522;27.456;2023-04-15T06:49:22;100790.31;;;15.88;59.07
50250;BME280;36133;42.522;27.456;2023-04-15T06:51:53;100888.34;;;16.44;59.03
50250;BME280;36133;42.522;27.456;2023-04-15T06:54:19;100963.03;;;16.99;59.90
50250;BME280;36133;42.522;27.456;2023-04-15T06:56:44;100815.38;;;15.96;59.99
50250;BME280;36133;42.522;27.456;2023-04-15T06:59:10;100795.50;;;15.64;60.78
50250;BME280;36133;42.522;27.456;2023-04-15T07:01:36;100494.41;;;13.94;60.75
50250;BME280;36133;42.522;27.456;2023-04-15T07:04:04;100480.97;;;13.41;61.32
50250;BME280;36133;42.522;27.456;2023-04-15T07:06:30;100465.25;;;14.59;58.22
50250;BME280;36133;42.522;27.456;2023-04-15T07:08:59;100921.56;;;18.01;56.26
50250;BME280;36133;42.522;27.456;2023-04-15T07:11:28;100920.06;;;16.07;62.68
50250;BME280;36133;42.522;27.456;2023-04-15T07:13:54;101010.38;;;16.42;62.16
50250;BME280;36133;42.522;27.456;2023-04-15T07:16:19;100693.91;;;14.49;62.01
50250;BME280;36133;42.522;27.456;2023-04-15T07:18:48;100837.50;;;15.30;62.63
50250;BME280;36133;42.522;27.456;2023-04-15T07:21:13;100731.06;;;14.69;63.04
50250;BME280;36133;42.522;27.456;2023-04-15T07:23:39;100846.09;;;15.27;62.63
50250;BME280;36133;42.522;27.456;2023-04-15T07:26:07;100768.13;;;15.52;62.62
50250;BME280;36133;42.522;27.456;2023-04-15T07:28:53;100825.66;;;17.12;58.18
50250;BME280;36133;42.522;27.456;2023-04-15T07:31:22;100827.75;;;16.74;59.38
50250;BME280;36133;42.522;27.456;2023-04-15T07:33:50;100515.47;;;13.92;60.95
50250;BME280;36133;42.522;27.456;2023-04-15T07:36:16;100838.19;;;16.02;61.57
50250;BME280;36133;42.522;27.456;2023-04-15T07:38:47;100502.75;;;13.79;61.41
50250;BME280;36133;42.522;27.456;2023-04-15T07:41:22;100483.91;;;14.49;59.00
50250;BME280;36133;42.522;27.456;2023-04-15T07:43:48;100954.22;;;17.96;57.22
50250;BME280;36133;42.522;27.456;2023-04-15T07:46:15;100831.94;;;17.79;56.53
50250;BME280;36133;42.522;27.456;2023-04-15T07:48:41;100913.00;;;16.87;59.77
50250;BME280;36133;42.522;27.456;2023-04-15T07:51:23;100725.69;;;15.76;59.76
50250;BME280;36133;42.522;27.456;2023-04-15T07:53:54;100620.19;;;14.84;60.52
50250;BME280;36133;42.522;27.456;2023-04-15T07:56:20;100535.31;;;13.86;62.42
50250;BME280;36133;42.522;27.456;2023-04-15T07:58:46;100503.69;;;13.46;62.58
50250;BME280;36133;42.522;27.456;2023-04-15T08:01:12;100867.72;;;15.60;63.40
50250;BME280;36133;42.522;27.456;2023-04-15T08:03:37;100807.94;;;14.82;65.21
50250;BME280;36133;42.522;27.456;2023-04-15T08:06:03;100765.41;;;15.01;64.24
50250;BME280;36133;42.522;27.456;2023-04-15T08:08:29;100603.19;;;13.39;65.44
50250;BME280;36133;42.522;27.456;2023-04-15T08:10:58;100546.47;;;15.48;60.33
50250;BME280;36133;42.522;27.456;2023-04-15T08:13:25;100882.09;;;18.27;58.18
50250;BME280;36133;42.522;27.456;2023-04-15T08:16:18;100596.47;;;17.66;55.33
50250;BME280;36133;42.522;27.456;2023-04-15T08:18:54;100550.56;;;16.37;57.05
50250;BME280;36133;42.522;27.456;2023-04-15T08:21:20;100851.44;;;18.36;56.22
50250;BME280;36133;42.522;27.456;2023-04-15T08:23:47;100605.06;;;16.37;58.67
50250;BME280;36133;42.522;27.456;2023-04-15T08:26:19;100895.75;;;18.68;56.65
50250;BME280;36133;42.522;27.456;2023-04-15T08:28:45;100832.44;;;17.58;58.72
50250;BME280;36133;42.522;27.456;2023-04-15T08:31:13;100942.13;;;19.33;55.88
50250;BME280;36133;42.522;27.456;2023-04-15T08:33:59;100528.34;;;14.92;60.23
50250;BME280;36133;42.522;27.456;2023-04-15T08:36:45;100850.56;;;18.12;58.55
50250;BME280;36133;42.522;27.456;2023-04-15T08:39:10;100957.59;;;18.09;59.90
50250;BME280;36133;42.522;27.456;2023-04-15T08:42:09;100525.81;;;16.99;55.92
50250;BME280;36133;42.522;27.456;2023-04-15T08:44:36;100685.84;;;16.68;59.22
50250;BME280;36133;42.522;27.456;2023-04-15T08:47:06;100655.50;;;15.22;60.70
50250;BME280;36133;42.522;27.456;2023-04-15T08:49:35;100573.03;;;14.65;61.82
50250;BME280;36133;42.522;27.456;2023-04-15T08:52:06;100859.13;;;17.19;60.25
50250;BME280;36133;42.522;27.456;2023-04-15T08:54:34;100838.00;;;16.96;60.03
50250;BME280;36133;42.522;27.456;2023-04-15T08:57:04;100551.97;;;14.60;61.80
50250;BME280;36133;42.522;27.456;2023-04-15T08:59:43;101037.69;;;17.73;61.00
50250;BME280;36133;42.522;27.456;2023-04-15T09:02:15;100840.25;;;17.18;60.30
50250;BME280;36133;42.522;27.456;2023-04-15T09:04:41;100547.84;;;15.82;58.82
50250;BME280;36133;42.522;27.456;2023-04-15T09:07:10;101010.31;;;18.58;58.60
50250;BME280;36133;42.522;27.456;2023-04-15T09:09:35;100856.66;;;17.66;58.61
50250;BME280;36133;42.522;27.456;2023-04-15T09:12:04;100570.47;;;16.20;58.01
50250;BME280;36133;42.522;27.456;2023-04-15T09:14:30;100831.97;;;19.26;55.05
50250;BME280;36133;42.522;27.456;2023-04-15T09:17:03;100739.72;;;18.75;54.00
50250;BME280;36133;42.522;27.456;2023-04-15T09:19:29;100774.81;;;18.55;54.56
50250;BME280;36133;42.522;27.456;2023-04-15T09:21:59;100728.16;;;19.53;52.77
50250;BME280;36133;42.522;27.456;2023-04-15T09:24:38;100973.88;;;22.70;50.05
50250;BME280;36133;42.522;27.456;2023-04-15T09:27:08;100670.31;;;21.80;47.38
50250;BME280;36133;42.522;27.456;2023-04-15T09:29:49;100843.16;;;25.25;42.67
50250;BME280;36133;42.522;27.456;2023-04-15T09:32:15;100633.72;;;26.48;38.79
50250;BME280;36133;42.522;27.456;2023-04-15T09:37:44;100674.31;;;29.18;33.02
50250;BME280;36133;42.522;27.456;2023-04-15T09:40:13;100631.56;;;28.78;33.07
50250;BME280;36133;42.522;27.456;2023-04-15T09:43:01;100542.34;;;29.92;30.45
50250;BME280;36133;42.522;27.456;2023-04-15T09:45:27;100911.03;;;33.83;28.29
50250;BME280;36133;42.522;27.456;2023-04-15T09:47:53;100823.19;;;32.61;28.49
50250;BME280;36133;42.522;27.456;2023-04-15T09:50:22;100890.78;;;33.57;27.23
50250;BME280;36133;42.522;27.456;2023-04-15T09:52:51;100987.84;;;28.89;34.30
50250;BME280;36133;42.522;27.456;2023-04-15T09:55:17;100955.28;;;30.32;32.71
50250;BME280;36133;42.522;27.456;2023-04-15T09:57:42;100727.34;;;31.27;29.20
50250;BME280;36133;42.522;27.456;2023-04-15T10:00:12;100846.22;;;30.83;30.55
50250;BME280;36133;42.522;27.456;2023-04-15T10:02:41;100546.53;;;28.55;30.55
50250;BME280;36133;42.522;27.456;2023-04-15T10:05:14;100806.69;;;29.92;31.84
50250;BME280;36133;42.522;27.456;2023-04-15T10:07:42;100831.28;;;34.10;27.31
50250;BME280;36133;42.522;27.456;2023-04-15T10:10:12;100791.50;;;31.44;28.69
50250;BME280;36133;42.522;27.456;2023-04-15T10:12:45;100725.97;;;33.97;26.06
50250;BME280;36133;42.522;27.456;2023-04-15T10:15:17;100839.63;;;37.96;22.71
50250;BME280;36133;42.522;27.456;2023-04-15T10:17:44;100814.78;;;35.85;24.18
50250;BME280;36133;42.522;27.456;2023-04-15T10:20:13;100569.09;;;35.07;23.50
50250;BME280;36133;42.522;27.456;2023-04-15T10:22:39;100829.16;;;37.62;22.64
50250;BME280;36133;42.522;27.456;2023-04-15T10:25:21;100877.41;;;34.66;25.44
50250;BME280;36133;42.522;27.456;2023-04-15T10:27:49;100618.03;;;33.33;24.89
50250;BME280;36133;42.522;27.456;2023-04-15T10:30:16;100728.78;;;33.05;26.58
50250;BME280;36133;42.522;27.456;2023-04-15T10:32:45;100978.28;;;34.54;26.27
50250;BME280;36133;42.522;27.456;2023-04-15T10:35:17;100595.53;;;29.01;29.86
50250;BME280;36133;42.522;27.456;2023-04-15T10:37:43;100768.41;;;33.45;26.45
50250;BME280;36133;42.522;27.456;2023-04-15T10:40:28;100953.00;;;33.54;27.71
50250;BME280;36133;42.522;27.456;2023-04-15T10:43:06;100507.34;;;29.99;27.84
50250;BME280;36133;42.522;27.456;2023-04-15T10:45:49;100552.44;;;28.40;29.91
50250;BME280;36133;42.522;27.456;2023-04-15T10:48:15;100879.31;;;29.82;30.51
50250;BME280;36133;42.522;27.456;2023-04-15T10:51:02;100504.66;;;30.17;27.75
50250;BME280;36133;42.522;27.456;2023-04-15T10:53:28;100492.75;;;29.54;28.19
50250;BME280;36133;42.522;27.456;2023-04-15T10:55:56;100763.47;;;30.61;28.89
50250;BME280;36133;42.522;27.456;2023-04-15T10:58:25;100858.78;;;31.03;29.04
50250;BME280;36133;42.522;27.456;2023-04-15T11:00:52;100790.81;;;29.70;31.07
50250;BME280;36133;42.522;27.456;2023-04-15T11:03:38;100511.06;;;32.32;25.94
50250;BME280;36133;42.522;27.456;2023-04-15T11:06:05;100932.94;;;35.18;24.81
50250;BME280;36133;42.522;27.456;2023-04-15T11:11:19;100930.78;;;40.93;19.26
50250;BME280;36133;42.522;27.456;2023-04-15T11:13:49;100498.16;;;31.89;24.77
50250;BME280;36133;42.522;27.456;2023-04-15T11:16:16;100578.63;;;33.92;23.47
50250;BME280;36133;42.522;27.456;2023-04-15T11:18:54;100697.47;;;35.50;22.05
50250;BME280;36133;42.522;27.456;2023-04-15T11:21:23;100891.78;;;37.39;21.15
50250;BME280;36133;42.522;27.456;2023-04-15T11:23:53;100929.06;;;41.70;17.57
50250;BME280;36133;42.522;27.456;2023-04-15T11:26:25;100932.66;;;38.54;20.12
50250;BME280;36133;42.522;27.456;2023-04-15T11:28:51;100666.72;;;32.61;24.68
50250;BME280;36133;42.522;27.456;2023-04-15T11:31:17;100860.94;;;33.90;25.01
50250;BME280;36133;42.522;27.456;2023-04-15T11:33:57;100615.34;;;37.72;20.13
50250;BME280;36133;42.522;27.456;2023-04-15T11:36:28;100688.88;;;37.87;20.03
50250;BME280;36133;42.522;27.456;2023-04-15T11:38:59;100689.81;;;34.98;23.13
50250;BME280;36133;42.522;27.456;2023-04-15T11:41:25;100940.34;;;36.77;22.62
50250;BME280;36133;42.522;27.456;2023-04-15T11:43:51;100566.59;;;37.45;20.36
50250;BME280;36133;42.522;27.456;2023-04-15T11:46:20;100660.38;;;42.25;16.90
50250;BME280;36133;42.522;27.456;2023-04-15T11:48:46;100784.47;;;40.19;18.70
50250;BME280;36133;42.522;27.456;2023-04-15T11:51:13;100493.88;;;32.51;23.87
50250;BME280;36133;42.522;27.456;2023-04-15T11:53:47;100914.13;;;35.19;24.23
50250;BME280;36133;42.522;27.456;2023-04-15T11:56:28;100929.34;;;33.80;25.82
50250;BME280;36133;42.522;27.456;2023-04-15T11:58:57;100902.56;;;37.06;22.64
50250;BME280;36133;42.522;27.456;2023-04-15T12:01:43;100869.94;;;37.83;21.59
50250;BME280;36133;42.522;27.456;2023-04-15T12:04:16;100903.09;;;42.37;17.75
50250;BME280;36133;42.522;27.456;2023-04-15T12:06:44;100888.50;;;44.20;16.10
50250;BME280;36133;42.522;27.456;2023-04-15T12:09:11;100467.56;;;41.47;16.02
50250;BME280;36133;42.522;27.456;2023-04-15T12:12:07;100908.72;;;40.72;18.60
50250;BME280;36133;42.522;27.456;2023-04-15T12:14:35;100727.03;;;40.96;18.28
50250;BME280;36133;42.522;27.456;2023-04-15T12:17:03;100646.94;;;40.92;17.66
50250;BME280;36133;42.522;27.456;2023-04-15T12:19:40;100467.84;;;42.49;15.94
50250;BME280;36133;42.522;27.456;2023-04-15T12:22:11;100553.19;;;43.11;15.28
50250;BME280;36133;42.522;27.456;2023-04-15T12:24:37;100727.22;;;45.14;15.10
50250;BME280;36133;42.522;27.456;2023-04-15T12:27:11;100876.50;;;41.87;17.61
50250;BME280;36133;42.522;27.456;2023-04-15T12:29:44;100739.50;;;39.73;19.14
50250;BME280;36133;42.522;27.456;2023-04-15T12:32:19;100734.19;;;36.29;22.14
50250;BME280;36133;42.522;27.456;2023-04-15T12:34:52;100476.88;;;32.56;25.74
50250;BME280;36133;42.522;27.456;2023-04-15T12:37:18;100704.81;;;36.26;23.25
50250;BME280;36133;42.522;27.456;2023-04-15T12:39:46;100424.19;;;35.27;22.29
50250;BME280;36133;42.522;27.456;2023-04-15T12:42:14;100488.13;;;37.90;19.98
50250;BME280;36133;42.522;27.456;2023-04-15T12:44:40;100741.75;;;39.61;19.87
50250;BME280;36133;42.522;27.456;2023-04-15T12:47:08;100463.72;;;37.51;20.71
50250;BME280;36133;42.522;27.456;2023-04-15T12:49:43;100440.41;;;38.27;19.16
50250;BME280;36133;42.522;27.456;2023-04-15T12:52:08;100446.22;;;37.85;19.80